Pagrindinis puslapis
METAR-TAF:

METAR-TAF

Oro uostai :

Jelivarė, Švedija

platuma: 67-09N, ilguma: 020-39E, Aukštis: 359 m

Dabartinis oras

Ataskaita buvo paskelbta 36 minutes, ne 09:50 UTC
Vėjas 8 kt iš Šiaurės/Šiaurės Vakarų
Temperatūra -7°C
Drėgmė 79%
Slėgis 977 hPa
Matomumas 10 km arba daugiau
Apsiniaukę ne aukštis 1700 ft

METAR: ESNG 090950Z 33008KT 9999 OVC017 M07/M10 Q0977

Laikas: 11:26 (10:26 UTC)

Prognozė

Ataskaita buvo paskelbta 1 valandą ir 56 minutes, ne 08:30 UTC
Prognozė galioja nuo 09 metu 09 UTC su 09 metu 18 UTC
Vėjas 8 kt iš Šiaurės/Šiaurės Vakarų
Matomumas 10 km arba daugiau
Su prošvaistėmis ne aukštis 2000 ft
sniegas
Laikinai
nuo 09 metu 09 UTC su 09 metu 12 UTC
Matomumas: 2500 m
ne aukštis 900 ft

TAF: ESNG 090830Z 0909/0918 34008KT 9999 -SN BKN020 TEMPO 0909/0912 2500 VV009

Orai ataskaitas ir orų prognozės (METAR, TAF).

turimą stotys yra geltonos ir raudonos taškus žemėlapyje.

Perkelti pele per norėdami pamatyti stoties vardą.

Tada spustelėkite, norėdami matyti oro stebėjimo ir prognozės.

Norėdami pakeisti žemėlapį: spustelėkite ant žalios mygtukų su juodo kryžiaus žemyn,; žalią mygtuką su brūkšneliu, jei norite nutolinti; arba žalių rodyklių gretimoms žemėlapius.


METAR-TAF: